createdAt,value
2022-08-22T00:00:55.256Z,14.27
2022-08-22T00:01:55.302Z,14.27
2022-08-22T00:02:43.109Z,16.92
2022-08-22T00:02:57.557Z,14.95
2022-08-22T00:03:01.016Z,18.19
2022-08-22T00:03:56.214Z,14.27
2022-08-22T00:04:55.204Z,14.25
2022-08-22T00:05:55.196Z,14.25
2022-08-22T00:06:55.186Z,14.27
2022-08-22T00:07:55.226Z,14.25
2022-08-22T00:08:55.164Z,14.24
2022-08-22T00:09:55.153Z,14.25
2022-08-22T00:10:55.133Z,14.20
2022-08-22T00:11:55.123Z,14.24
2022-08-22T00:12:55.123Z,14.24
2022-08-22T00:14:01.213Z,14.24
2022-08-22T00:14:56.094Z,14.25
2022-08-22T00:15:55.080Z,14.24
2022-08-22T00:16:55.075Z,14.27
2022-08-22T00:17:55.122Z,14.27
2022-08-22T00:18:55.082Z,14.27
2022-08-22T00:19:55.063Z,14.27
2022-08-22T00:20:55.022Z,14.28
2022-08-22T00:21:55.014Z,14.28
2022-08-22T00:22:54.993Z,14.28
2022-08-22T00:23:54.992Z,14.29
2022-08-22T00:24:54.981Z,14.27
2022-08-22T00:25:54.964Z,14.28
2022-08-22T00:26:54.951Z,14.29
2022-08-22T00:27:55.070Z,14.29
2022-08-22T00:28:54.949Z,14.29
2022-08-22T00:29:54.931Z,14.31
2022-08-22T00:30:54.901Z,14.32
2022-08-22T00:31:54.889Z,14.31
2022-08-22T00:32:54.880Z,14.29
2022-08-22T00:33:54.860Z,14.31
2022-08-22T00:34:54.910Z,14.28
2022-08-22T00:35:54.840Z,14.31
2022-08-22T00:36:54.830Z,14.29
2022-08-22T00:37:54.878Z,14.31
2022-08-22T00:38:54.811Z,14.31
2022-08-22T00:39:54.857Z,14.34
2022-08-22T00:40:54.789Z,14.34
2022-08-22T00:41:54.789Z,14.35
2022-08-22T00:42:54.761Z,14.35
2022-08-22T00:43:54.751Z,14.35
2022-08-22T00:44:54.739Z,14.32
2022-08-22T00:45:54.739Z,14.29
2022-08-22T00:46:54.786Z,14.29
2022-08-22T00:47:54.703Z,14.29
2022-08-22T00:48:54.699Z,14.28
2022-08-22T00:49:54.681Z,14.25
2022-08-22T00:50:54.678Z,14.27
2022-08-22T00:51:54.658Z,14.25
2022-08-22T00:52:55.050Z,14.24
2022-08-22T00:53:54.637Z,14.20
2022-08-22T00:54:54.679Z,14.24
2022-08-22T00:55:54.608Z,14.25
2022-08-22T00:56:54.607Z,14.21
2022-08-22T00:57:54.617Z,14.21
2022-08-22T00:58:54.577Z,14.19
2022-08-22T00:59:54.587Z,14.16
2022-08-22T01:00:54.594Z,14.16
2022-08-22T01:01:54.537Z,14.10
2022-08-22T01:02:54.546Z,14.09
2022-08-22T01:03:54.573Z,14.09
2022-08-22T01:04:54.508Z,14.06
2022-08-22T01:05:54.518Z,14.04
2022-08-22T01:06:54.486Z,13.99
2022-08-22T01:07:54.475Z,13.98
2022-08-22T01:08:54.465Z,13.98
2022-08-22T01:09:54.458Z,13.98
2022-08-22T01:10:54.446Z,13.94
2022-08-22T01:11:54.455Z,13.91
2022-08-22T01:12:54.426Z,13.91
2022-08-22T01:13:54.408Z,13.88
2022-08-22T01:14:54.426Z,13.87
2022-08-22T01:15:54.375Z,13.84
2022-08-22T01:16:54.426Z,13.83
2022-08-22T01:17:54.373Z,13.80
2022-08-22T01:18:54.345Z,13.80
2022-08-22T01:19:54.335Z,13.77
2022-08-22T01:20:54.341Z,13.76
2022-08-22T01:21:54.306Z,13.73
2022-08-22T01:22:54.333Z,13.73
2022-08-22T01:23:54.283Z,13.76
2022-08-22T01:24:54.275Z,13.77
2022-08-22T01:25:54.264Z,13.76
2022-08-22T01:26:54.273Z,13.76
2022-08-22T01:27:54.243Z,13.79
2022-08-22T01:28:54.244Z,13.77
2022-08-22T01:29:54.222Z,13.79
2022-08-22T01:30:54.203Z,13.77
2022-08-22T01:31:54.255Z,13.73
2022-08-22T01:32:57.161Z,13.73
2022-08-22T01:33:54.206Z,13.70
2022-08-22T01:34:54.313Z,13.69
2022-08-22T01:35:54.153Z,13.70
2022-08-22T01:36:54.133Z,13.69
2022-08-22T01:37:54.171Z,13.69
2022-08-22T01:38:54.114Z,13.65
2022-08-22T01:39:54.139Z,13.65
2022-08-22T01:40:54.467Z,13.65
2022-08-22T01:41:54.081Z,13.65
2022-08-22T01:42:54.071Z,13.63
2022-08-22T01:43:59.948Z,13.63
2022-08-22T01:44:55.042Z,13.63
2022-08-22T01:45:54.054Z,13.62
2022-08-22T01:46:54.012Z,13.62
2022-08-22T01:47:54.508Z,13.59
2022-08-22T01:48:53.991Z,13.59
2022-08-22T01:49:53.980Z,13.62
2022-08-22T01:50:53.971Z,13.59
2022-08-22T01:51:53.971Z,13.61
2022-08-22T01:52:53.951Z,13.56
2022-08-22T01:53:53.941Z,13.58
2022-08-22T01:54:53.920Z,13.56
2022-08-22T01:55:53.921Z,13.54
2022-08-22T01:56:53.921Z,13.52
2022-08-22T01:57:53.890Z,13.51
2022-08-22T01:58:53.881Z,13.46
2022-08-22T01:59:54.589Z,13.43
2022-08-22T02:00:53.878Z,13.40
2022-08-22T02:01:53.849Z,13.38
2022-08-22T02:02:53.847Z,13.38
2022-08-22T02:03:53.828Z,13.40
2022-08-22T02:04:53.809Z,13.37
2022-08-22T02:05:53.799Z,13.37
2022-08-22T02:06:53.778Z,13.37
2022-08-22T02:07:53.798Z,13.33
2022-08-22T02:08:53.757Z,13.33
2022-08-22T02:09:53.756Z,13.32
2022-08-22T02:10:53.738Z,13.32
2022-08-22T02:11:53.728Z,13.30
2022-08-22T02:12:53.719Z,13.32
2022-08-22T02:13:53.718Z,13.32
2022-08-22T02:14:53.696Z,13.29
2022-08-22T02:15:53.679Z,13.32
2022-08-22T02:16:53.667Z,13.27
2022-08-22T02:17:53.667Z,13.27
2022-08-22T02:18:53.665Z,13.27
2022-08-22T02:19:53.638Z,13.27
2022-08-22T02:20:53.617Z,13.27
2022-08-22T02:21:53.616Z,13.27
2022-08-22T02:22:53.596Z,13.25
2022-08-22T02:23:53.586Z,13.22
2022-08-22T02:24:53.595Z,13.25
2022-08-22T02:25:53.566Z,13.25
2022-08-22T02:26:53.557Z,13.27
2022-08-22T02:27:53.546Z,13.25
2022-08-22T02:28:56.993Z,13.27
2022-08-22T02:29:53.515Z,13.25
2022-08-22T02:30:53.516Z,13.25
2022-08-22T02:31:53.497Z,13.24
2022-08-22T02:32:53.485Z,13.25
2022-08-22T02:33:53.474Z,13.25
2022-08-22T02:34:53.484Z,13.25
2022-08-22T02:35:53.453Z,13.25
2022-08-22T02:36:53.435Z,13.24
2022-08-22T02:37:53.424Z,13.24
2022-08-22T02:38:53.414Z,13.21
2022-08-22T02:39:53.458Z,13.22
2022-08-22T02:40:53.414Z,13.22
2022-08-22T02:41:53.384Z,13.24
2022-08-22T02:42:53.363Z,13.20
2022-08-22T02:43:53.354Z,13.17
2022-08-22T02:44:53.343Z,13.21
2022-08-22T02:45:53.341Z,13.18
2022-08-22T02:46:53.333Z,13.18
2022-08-22T02:47:53.322Z,13.15
2022-08-22T02:48:53.303Z,13.14
2022-08-22T02:49:53.292Z,13.14
2022-08-22T02:50:53.272Z,13.12
2022-08-22T02:51:53.281Z,13.11
2022-08-22T02:52:53.255Z,13.09
2022-08-22T02:53:53.243Z,13.07
2022-08-22T02:54:53.232Z,13.07
2022-08-22T02:55:53.220Z,13.04
2022-08-22T02:56:53.203Z,13.02
2022-08-22T02:57:53.251Z,13.02
2022-08-22T02:58:53.182Z,13.03
2022-08-22T02:59:53.172Z,13.04
2022-08-22T03:00:53.203Z,13.06
2022-08-22T03:01:53.169Z,13.06
2022-08-22T03:02:53.151Z,13.06
2022-08-22T03:03:53.129Z,13.04
2022-08-22T03:04:53.112Z,13.02
2022-08-22T03:05:53.102Z,13.02
2022-08-22T03:06:53.088Z,13.03
2022-08-22T03:07:53.166Z,13.02
2022-08-22T03:08:53.080Z,13.04
2022-08-22T03:09:53.070Z,13.03
2022-08-22T03:10:53.039Z,13.03
2022-08-22T03:11:53.039Z,13.04
2022-08-22T03:12:57.309Z,13.04
2022-08-22T03:13:53.019Z,13.04
2022-08-22T03:14:53.021Z,13.04
2022-08-22T03:15:52.979Z,13.03
2022-08-22T03:16:52.970Z,13.06
2022-08-22T03:17:52.980Z,13.06
2022-08-22T03:18:52.948Z,13.04
2022-08-22T03:19:52.941Z,13.02
2022-08-22T03:20:52.938Z,13.03
2022-08-22T03:21:52.919Z,13.02
2022-08-22T03:22:52.900Z,13.02
2022-08-22T03:23:52.897Z,13.00
2022-08-22T03:24:52.878Z,13.00
2022-08-22T03:25:52.880Z,12.99
2022-08-22T03:26:52.857Z,12.99
2022-08-22T03:27:52.849Z,12.97
2022-08-22T03:29:00.051Z,12.95
2022-08-22T03:29:53.828Z,12.96
2022-08-22T03:30:52.827Z,12.95
2022-08-22T03:31:52.798Z,12.95
2022-08-22T03:32:52.786Z,12.93
2022-08-22T03:33:52.778Z,12.93
2022-08-22T03:34:52.766Z,12.88
2022-08-22T03:35:52.766Z,12.92
2022-08-22T03:36:52.776Z,12.92
2022-08-22T03:37:52.762Z,12.89
2022-08-22T03:38:52.717Z,12.89
2022-08-22T03:39:52.747Z,12.88
2022-08-22T03:40:52.705Z,12.84
2022-08-22T03:41:52.685Z,12.85
2022-08-22T03:42:52.668Z,12.84
2022-08-22T03:43:52.675Z,12.81
2022-08-22T03:44:52.646Z,12.75
2022-08-22T03:45:52.643Z,12.74
2022-08-22T03:46:52.625Z,12.71
2022-08-22T03:47:52.627Z,12.69
2022-08-22T03:48:52.595Z,12.70
2022-08-22T03:49:54.772Z,12.71
2022-08-22T03:50:54.492Z,12.67
2022-08-22T03:51:52.572Z,12.69
2022-08-22T03:52:52.555Z,12.64
2022-08-22T03:53:52.544Z,12.66
2022-08-22T03:54:52.543Z,12.66
2022-08-22T03:55:52.524Z,12.66
2022-08-22T03:56:54.174Z,12.64
2022-08-22T03:57:53.503Z,12.63
2022-08-22T03:58:52.483Z,12.63
2022-08-22T03:59:52.493Z,12.64
2022-08-22T04:00:52.566Z,12.64
2022-08-22T04:01:52.452Z,12.64
2022-08-22T04:02:52.443Z,12.63
2022-08-22T04:03:52.432Z,12.63
2022-08-22T04:04:52.430Z,12.63
2022-08-22T04:05:53.335Z,12.64
2022-08-22T04:06:53.730Z,12.63
2022-08-22T04:07:52.471Z,12.63
2022-08-22T04:08:52.371Z,12.63
2022-08-22T04:09:52.361Z,12.60
2022-08-22T04:10:52.359Z,12.52
2022-08-22T04:11:52.333Z,12.52
2022-08-22T04:12:52.323Z,12.49
2022-08-22T04:13:52.311Z,12.48
2022-08-22T04:14:52.301Z,12.48
2022-08-22T04:15:53.191Z,12.44
2022-08-22T04:16:52.281Z,12.46
2022-08-22T04:17:52.291Z,12.46
2022-08-22T04:18:52.250Z,12.48
2022-08-22T04:19:52.243Z,12.46
2022-08-22T04:20:52.242Z,12.45
2022-08-22T04:21:52.220Z,12.46
2022-08-22T04:22:52.212Z,12.45
2022-08-22T04:23:52.200Z,12.45
2022-08-22T04:24:52.587Z,12.45
2022-08-22T04:25:52.188Z,12.44
2022-08-22T04:26:52.162Z,12.41
2022-08-22T04:27:52.178Z,12.42
2022-08-22T04:28:52.150Z,12.41
2022-08-22T04:29:52.126Z,12.39
2022-08-22T04:30:52.148Z,12.39
2022-08-22T04:31:52.118Z,12.39
2022-08-22T04:32:52.089Z,12.38
2022-08-22T04:33:52.078Z,12.41
2022-08-22T04:34:52.068Z,12.45
2022-08-22T04:35:52.080Z,12.44
2022-08-22T04:36:52.058Z,12.45
2022-08-22T04:37:52.092Z,12.45
2022-08-22T04:38:52.017Z,12.44
2022-08-22T04:39:52.106Z,12.41
2022-08-22T04:40:51.997Z,12.39
2022-08-22T04:41:51.988Z,12.34
2022-08-22T04:42:51.978Z,12.31
2022-08-22T04:43:51.966Z,12.38
2022-08-22T04:44:51.947Z,12.37
2022-08-22T04:45:51.937Z,12.34
2022-08-22T04:46:51.937Z,12.34
2022-08-22T04:47:53.929Z,12.34
2022-08-22T04:48:51.896Z,12.34
2022-08-22T04:49:51.888Z,12.37
2022-08-22T04:50:51.875Z,12.39
2022-08-22T04:51:51.872Z,12.41
2022-08-22T04:52:51.865Z,12.44
2022-08-22T04:53:51.846Z,12.44
2022-08-22T04:54:51.836Z,12.45
2022-08-22T04:55:51.835Z,12.45
2022-08-22T04:56:51.805Z,12.45
2022-08-22T04:57:51.813Z,12.42
2022-08-22T04:58:51.784Z,12.41
2022-08-22T04:59:51.785Z,12.44
2022-08-22T05:00:51.754Z,12.42
2022-08-22T05:01:51.777Z,12.44
2022-08-22T05:02:51.733Z,12.45
2022-08-22T05:03:51.734Z,12.46
2022-08-22T05:04:51.714Z,12.48
2022-08-22T05:05:51.704Z,12.49
2022-08-22T05:06:51.694Z,12.52
2022-08-22T05:07:51.683Z,12.54
2022-08-22T05:08:53.729Z,12.56
2022-08-22T05:09:51.654Z,12.60
2022-08-22T05:10:51.643Z,12.62
2022-08-22T05:11:51.633Z,12.62
2022-08-22T05:12:51.613Z,12.63
2022-08-22T05:13:51.614Z,12.66
2022-08-22T05:14:51.612Z,12.70
2022-08-22T05:15:51.592Z,12.70
2022-08-22T05:16:51.575Z,12.74
2022-08-22T05:17:51.564Z,12.75
2022-08-22T05:18:51.551Z,12.79
2022-08-22T05:19:51.552Z,12.79
2022-08-22T05:20:51.528Z,12.84
2022-08-22T05:21:51.520Z,12.87
2022-08-22T05:22:51.501Z,12.89
2022-08-22T05:23:51.491Z,12.95
2022-08-22T05:24:51.482Z,12.97
2022-08-22T05:25:51.483Z,12.96
2022-08-22T05:26:51.460Z,13.00
2022-08-22T05:27:56.323Z,13.03
2022-08-22T05:28:53.412Z,13.06
2022-08-22T05:29:51.439Z,13.11
2022-08-22T05:30:51.416Z,13.14
2022-08-22T05:31:51.402Z,13.15
2022-08-22T05:32:51.390Z,13.20
2022-08-22T05:33:51.380Z,13.25
2022-08-22T05:34:51.479Z,13.30
2022-08-22T05:35:55.816Z,13.27
2022-08-22T05:36:52.339Z,13.25
2022-08-22T05:37:51.336Z,13.29
2022-08-22T05:38:51.327Z,13.32
2022-08-22T05:39:51.398Z,13.37
2022-08-22T05:40:51.309Z,13.40
2022-08-22T05:41:51.288Z,13.46
2022-08-22T05:42:51.269Z,13.52
2022-08-22T05:43:51.267Z,13.59
2022-08-22T05:44:51.248Z,13.62
2022-08-22T05:45:51.249Z,13.70
2022-08-22T05:46:51.219Z,13.76
2022-08-22T05:47:51.216Z,13.81
2022-08-22T05:48:51.208Z,13.88
2022-08-22T05:49:51.188Z,13.94
2022-08-22T05:50:51.247Z,13.99
2022-08-22T05:51:51.167Z,14.06
2022-08-22T05:52:51.167Z,14.13
2022-08-22T05:53:51.149Z,14.19
2022-08-22T05:54:51.137Z,14.27
2022-08-22T05:55:51.138Z,14.31
2022-08-22T05:56:51.110Z,14.39
2022-08-22T05:57:51.096Z,14.44
2022-08-22T05:58:51.089Z,14.53
2022-08-22T05:59:51.077Z,14.61
2022-08-22T06:00:51.078Z,14.69
2022-08-22T06:01:51.062Z,14.74
2022-08-22T06:02:51.036Z,14.86
2022-08-22T06:03:51.027Z,14.93
2022-08-22T06:04:51.015Z,15.01
2022-08-22T06:05:51.005Z,15.06
2022-08-22T06:06:51.003Z,15.13
2022-08-22T06:07:50.997Z,15.24
2022-08-22T06:08:50.978Z,15.31
2022-08-22T06:09:50.961Z,15.39
2022-08-22T06:10:50.946Z,15.48
2022-08-22T06:11:52.055Z,15.57
2022-08-22T06:12:50.926Z,15.64
2022-08-22T06:13:50.923Z,15.72
2022-08-22T06:14:50.895Z,15.79
2022-08-22T06:15:50.895Z,15.88
2022-08-22T06:16:50.875Z,15.96
2022-08-22T06:17:50.884Z,16.00
2022-08-22T06:18:50.857Z,16.06
2022-08-22T06:19:50.843Z,16.11
2022-08-22T06:20:50.824Z,16.16
2022-08-22T06:21:50.823Z,16.23
2022-08-22T06:22:50.814Z,16.31
2022-08-22T06:23:50.805Z,16.34
2022-08-22T06:24:50.785Z,16.38
2022-08-22T06:25:50.773Z,16.42
2022-08-22T06:26:50.753Z,16.42
2022-08-22T06:27:50.764Z,16.44
2022-08-22T06:28:55.259Z,16.49
2022-08-22T06:29:51.723Z,16.49
2022-08-22T06:30:50.712Z,16.50
2022-08-22T06:31:50.703Z,16.56
2022-08-22T06:33:00.178Z,16.59
2022-08-22T06:33:51.680Z,16.63
2022-08-22T06:34:50.666Z,16.70
2022-08-22T06:35:50.662Z,16.74
2022-08-22T06:36:50.642Z,16.75
2022-08-22T06:37:50.651Z,16.80
2022-08-22T06:38:50.628Z,16.85
2022-08-22T06:39:50.676Z,16.89
2022-08-22T06:40:50.592Z,16.90
2022-08-22T06:41:50.589Z,16.89
2022-08-22T06:42:50.574Z,16.93
2022-08-22T06:43:50.573Z,16.99
2022-08-22T06:44:50.552Z,17.04
2022-08-22T06:45:50.543Z,17.06
2022-08-22T06:46:50.534Z,17.06
2022-08-22T06:47:52.178Z,17.08
2022-08-22T06:48:50.511Z,17.13
2022-08-22T06:49:50.492Z,17.14
2022-08-22T06:50:50.481Z,17.18
2022-08-22T06:51:50.471Z,17.22
2022-08-22T06:52:50.453Z,17.23
2022-08-22T06:53:50.619Z,17.28
2022-08-22T06:54:50.433Z,17.30
2022-08-22T06:55:50.439Z,17.32
2022-08-22T06:56:50.410Z,17.36
2022-08-22T06:57:50.401Z,17.41
2022-08-22T06:58:50.381Z,17.46
2022-08-22T06:59:50.391Z,17.48
2022-08-22T07:00:53.539Z,17.54
2022-08-22T07:01:51.373Z,17.57
2022-08-22T07:02:50.345Z,17.62
2022-08-22T07:03:50.331Z,17.59
2022-08-22T07:04:50.318Z,17.64
2022-08-22T07:05:50.332Z,17.67
2022-08-22T07:06:50.325Z,17.70
2022-08-22T07:07:50.281Z,17.76
2022-08-22T07:08:50.273Z,17.78
2022-08-22T07:09:50.260Z,17.84
2022-08-22T07:10:50.240Z,17.85
2022-08-22T07:11:50.259Z,17.89
2022-08-22T07:12:50.228Z,17.92
2022-08-22T07:13:50.211Z,17.95
2022-08-22T07:14:50.200Z,18.00
2022-08-22T07:15:50.201Z,18.04
2022-08-22T07:16:50.179Z,18.06
2022-08-22T07:17:50.205Z,18.09
2022-08-22T07:18:50.158Z,18.10
2022-08-22T07:19:50.179Z,18.17
2022-08-22T07:20:50.140Z,18.21
2022-08-22T07:21:50.126Z,18.18
2022-08-22T07:22:50.763Z,18.22
2022-08-22T07:23:50.116Z,18.27
2022-08-22T07:24:50.086Z,18.29
2022-08-22T07:25:50.080Z,18.34
2022-08-22T07:26:50.071Z,18.36
2022-08-22T07:27:50.059Z,18.40
2022-08-22T07:28:51.268Z,18.44
2022-08-22T07:29:51.028Z,18.50
2022-08-22T07:30:50.037Z,18.55
2022-08-22T07:31:50.009Z,18.61
2022-08-22T07:32:50.008Z,18.68
2022-08-22T07:33:50.165Z,18.73
2022-08-22T07:34:49.968Z,18.79
2022-08-22T07:35:53.472Z,18.91
2022-08-22T07:36:49.949Z,18.98
2022-08-22T07:37:49.947Z,19.08
2022-08-22T07:38:49.937Z,19.14
2022-08-22T07:39:50.922Z,19.24
2022-08-22T07:40:49.897Z,19.29
2022-08-22T07:41:49.887Z,19.31
2022-08-22T07:42:49.889Z,19.31
2022-08-22T07:43:49.875Z,19.29
2022-08-22T07:44:49.847Z,19.24
2022-08-22T07:45:49.838Z,19.21
2022-08-22T07:46:49.827Z,19.23
2022-08-22T07:47:49.956Z,19.31
2022-08-22T07:49:08.252Z,19.31
2022-08-22T07:49:50.795Z,19.40
2022-08-22T07:50:49.788Z,19.47
2022-08-22T07:51:49.779Z,19.46
2022-08-22T07:52:49.757Z,19.38
2022-08-22T07:53:49.768Z,19.31
2022-08-22T07:54:49.737Z,19.28
2022-08-22T07:55:50.055Z,19.35
2022-08-22T07:56:49.717Z,19.42
2022-08-22T07:57:49.696Z,19.48
2022-08-22T07:58:49.695Z,19.57
2022-08-22T07:59:49.689Z,19.60
2022-08-22T08:00:49.666Z,19.68
2022-08-22T08:01:49.674Z,19.73
2022-08-22T08:02:49.646Z,19.78
2022-08-22T08:03:49.645Z,19.84
2022-08-22T08:04:49.637Z,19.88
2022-08-22T08:05:49.636Z,19.78
2022-08-22T08:06:49.596Z,19.83
2022-08-22T08:07:49.586Z,19.84
2022-08-22T08:08:49.575Z,19.78
2022-08-22T08:09:49.577Z,19.72
2022-08-22T08:10:49.555Z,19.78
2022-08-22T08:11:49.536Z,19.84
2022-08-22T08:12:54.140Z,19.88
2022-08-22T08:13:50.514Z,19.93
2022-08-22T08:14:49.505Z,19.88
2022-08-22T08:15:49.502Z,19.91
2022-08-22T08:16:49.494Z,19.97
2022-08-22T08:17:49.466Z,20.03
2022-08-22T08:18:49.462Z,20.06
2022-08-22T08:19:49.458Z,20.00
2022-08-22T08:20:49.435Z,19.91
2022-08-22T08:21:49.437Z,19.97
2022-08-22T08:22:49.415Z,20.03
2022-08-22T08:23:49.395Z,20.10
2022-08-22T08:24:49.384Z,20.13
2022-08-22T08:25:49.375Z,20.21
2022-08-22T08:26:49.365Z,20.23
2022-08-22T08:27:50.459Z,20.24
2022-08-22T08:28:49.344Z,20.27
2022-08-22T08:29:49.371Z,20.30
2022-08-22T08:30:49.325Z,20.34
2022-08-22T08:31:49.305Z,20.34
2022-08-22T08:32:49.332Z,20.39
2022-08-22T08:33:49.285Z,20.46
2022-08-22T08:34:49.273Z,20.49
2022-08-22T08:36:02.357Z,20.54
2022-08-22T08:36:50.254Z,20.61
2022-08-22T08:37:49.234Z,20.66
2022-08-22T08:38:49.255Z,20.69
2022-08-22T08:39:49.236Z,20.77
2022-08-22T08:40:49.228Z,20.80
2022-08-22T08:41:49.194Z,20.83
2022-08-22T08:42:49.192Z,20.87
2022-08-22T08:43:49.173Z,20.93
2022-08-22T08:44:49.155Z,20.96
2022-08-22T08:45:49.160Z,20.99
2022-08-22T08:46:55.718Z,21.02
2022-08-22T08:47:50.114Z,21.02
2022-08-22T08:48:49.121Z,21.04
2022-08-22T08:49:50.513Z,21.06
2022-08-22T08:50:49.103Z,21.13
2022-08-22T08:51:49.073Z,21.16
2022-08-22T08:52:52.567Z,21.20
2022-08-22T08:53:49.053Z,21.20
2022-08-22T08:54:49.052Z,21.24
2022-08-22T08:55:49.041Z,21.26
2022-08-22T08:56:49.022Z,21.30
2022-08-22T08:57:50.003Z,21.32
2022-08-22T08:58:48.993Z,21.34
2022-08-22T08:59:48.993Z,21.35
2022-08-22T09:00:49.133Z,21.23
2022-08-22T09:01:48.966Z,21.27
2022-08-22T09:02:48.953Z,21.30
2022-08-22T09:03:48.951Z,21.34
2022-08-22T09:04:48.932Z,21.39
2022-08-22T09:05:48.931Z,21.46
2022-08-22T09:06:52.674Z,21.56
2022-08-22T09:07:49.893Z,21.63
2022-08-22T09:08:52.688Z,21.67
2022-08-22T09:09:52.320Z,21.75
2022-08-22T09:10:48.873Z,21.79
2022-08-22T09:11:48.843Z,21.83
2022-08-22T09:13:11.045Z,21.85
2022-08-22T09:13:49.822Z,21.88
2022-08-22T09:14:48.812Z,21.92
2022-08-22T09:15:59.678Z,21.97
2022-08-22T09:16:51.834Z,21.99
2022-08-22T09:17:48.772Z,22.04
2022-08-22T09:18:48.759Z,22.10
2022-08-22T09:19:48.752Z,22.14
2022-08-22T09:20:48.734Z,22.20
2022-08-22T09:21:48.749Z,22.28
2022-08-22T09:22:50.764Z,22.34
2022-08-22T09:23:48.715Z,22.38
2022-08-22T09:24:48.694Z,22.37
2022-08-22T09:25:48.690Z,22.38
2022-08-22T09:26:48.702Z,22.41
2022-08-22T09:27:48.662Z,22.46
2022-08-22T09:28:48.643Z,22.52
2022-08-22T09:29:54.755Z,22.54
2022-08-22T09:30:54.191Z,22.59
2022-08-22T09:32:49.641Z,22.71
2022-08-22T09:33:48.612Z,22.77
2022-08-22T09:34:48.605Z,22.77
2022-08-22T09:35:49.020Z,22.74
2022-08-22T09:36:48.542Z,22.74
2022-08-22T09:37:48.550Z,22.77
2022-08-22T09:38:48.532Z,22.78
2022-08-22T09:39:49.505Z,22.82
2022-08-22T09:40:16.220Z,22.65
2022-08-22T09:40:48.510Z,22.86
2022-08-22T09:41:51.662Z,22.90
2022-08-22T09:42:48.487Z,22.89
2022-08-22T09:43:48.912Z,22.90
2022-08-22T09:44:48.462Z,22.87
2022-08-22T09:45:48.478Z,22.89
2022-08-22T09:46:48.430Z,22.90
2022-08-22T09:47:48.430Z,22.90
2022-08-22T09:48:48.411Z,22.93
2022-08-22T09:49:48.410Z,22.92
2022-08-22T09:50:48.388Z,22.93
2022-08-22T09:51:49.380Z,22.94
2022-08-22T09:52:48.362Z,22.99
2022-08-22T09:53:48.371Z,23.04
2022-08-22T09:54:48.350Z,23.07
2022-08-22T09:55:48.341Z,23.11
2022-08-22T09:56:48.908Z,23.12
2022-08-22T09:57:48.308Z,23.17
2022-08-22T09:58:48.290Z,23.23
2022-08-22T09:59:48.291Z,23.27
2022-08-22T10:00:54.458Z,23.31
2022-08-22T10:01:49.268Z,23.38
2022-08-22T10:02:50.367Z,23.43
2022-08-22T10:03:48.240Z,23.42
2022-08-22T10:04:48.227Z,23.50
2022-08-22T10:05:48.213Z,23.52
2022-08-22T10:06:48.258Z,23.57
2022-08-22T10:07:52.668Z,23.60
2022-08-22T10:08:48.181Z,23.61
2022-08-22T10:09:48.179Z,23.60
2022-08-22T10:10:49.168Z,23.64
2022-08-22T10:11:48.150Z,23.68
2022-08-22T10:12:48.140Z,23.77
2022-08-22T10:13:48.120Z,23.82
2022-08-22T10:14:50.614Z,23.89
2022-08-22T10:15:48.099Z,23.98
2022-08-22T10:16:48.324Z,24.04
2022-08-22T10:17:48.079Z,24.00
2022-08-22T10:18:53.785Z,24.02
2022-08-22T10:19:49.051Z,23.98
2022-08-22T10:20:48.039Z,23.94
2022-08-22T10:21:48.030Z,23.95
2022-08-22T10:22:48.029Z,24.01
2022-08-22T10:23:48.009Z,24.10
2022-08-22T10:24:47.989Z,24.19
2022-08-22T10:25:47.990Z,24.24
2022-08-22T10:26:47.970Z,24.31
2022-08-22T10:27:47.961Z,24.39
2022-08-22T10:28:47.961Z,24.47
2022-08-22T10:29:47.940Z,24.49
2022-08-22T10:30:47.940Z,24.56
2022-08-22T10:31:58.615Z,24.63
2022-08-22T10:32:48.918Z,24.68
2022-08-22T10:33:47.909Z,24.76
2022-08-22T10:34:47.897Z,24.83
2022-08-22T10:35:47.874Z,24.92
2022-08-22T10:36:47.859Z,24.97
2022-08-22T10:37:47.841Z,25.01
2022-08-22T10:38:47.839Z,24.98
2022-08-22T10:39:47.920Z,25.05
2022-08-22T10:40:47.810Z,25.10
2022-08-22T10:41:47.808Z,25.10
2022-08-22T10:42:47.789Z,25.16
2022-08-22T10:43:47.808Z,25.22
2022-08-22T10:44:48.790Z,25.24
2022-08-22T10:45:47.751Z,25.28
2022-08-22T10:46:47.740Z,25.31
2022-08-22T10:47:47.729Z,25.32
2022-08-22T10:48:47.744Z,25.37
2022-08-22T10:49:51.140Z,25.42
2022-08-22T10:50:47.788Z,25.24
2022-08-22T10:51:47.679Z,25.05
2022-08-22T10:52:47.671Z,24.85
2022-08-22T10:53:47.669Z,24.64
2022-08-22T10:54:47.649Z,24.52
2022-08-22T10:55:47.630Z,24.34
2022-08-22T10:56:47.639Z,24.22
2022-08-22T10:57:52.575Z,24.01
2022-08-22T10:58:49.058Z,23.86
2022-08-22T10:59:47.864Z,23.75
2022-08-22T11:00:49.866Z,23.67
2022-08-22T11:01:47.601Z,23.49
2022-08-22T11:02:47.570Z,23.40
2022-08-22T11:03:47.547Z,23.32
2022-08-22T11:04:47.530Z,23.42
2022-08-22T11:05:50.209Z,23.60
2022-08-22T11:06:47.509Z,23.76
2022-08-22T11:07:48.740Z,23.90
2022-08-22T11:08:47.501Z,24.02
2022-08-22T11:09:47.479Z,24.08
2022-08-22T11:10:47.469Z,24.22
2022-08-22T11:11:47.598Z,24.35
2022-08-22T11:12:47.451Z,24.52
2022-08-22T11:13:47.457Z,24.53
2022-08-22T11:14:47.428Z,24.42
2022-08-22T11:15:47.432Z,24.42
2022-08-22T11:16:47.400Z,24.32
2022-08-22T11:17:53.906Z,24.20
2022-08-22T11:19:01.841Z,24.05
2022-08-22T11:19:48.359Z,23.94
2022-08-22T11:20:47.365Z,23.80
2022-08-22T11:21:47.349Z,23.71
2022-08-22T11:22:47.370Z,23.60
2022-08-22T11:23:47.339Z,23.70
2022-08-22T11:24:56.374Z,23.64
2022-08-22T11:25:53.709Z,23.52
2022-08-22T11:26:48.289Z,23.72
2022-08-22T11:27:47.269Z,23.86
2022-08-22T11:28:47.259Z,24.01
2022-08-22T11:29:47.258Z,24.17
2022-08-22T11:30:47.239Z,24.32
2022-08-22T11:31:51.632Z,24.41
2022-08-22T11:32:48.210Z,24.52
2022-08-22T11:33:47.793Z,24.63
2022-08-22T11:34:47.199Z,24.79
2022-08-22T11:35:47.179Z,24.87
2022-08-22T11:36:47.169Z,24.97
2022-08-22T11:37:47.250Z,25.01
2022-08-22T11:38:47.139Z,24.83
2022-08-22T11:39:47.303Z,24.67
2022-08-22T11:40:47.130Z,24.50
2022-08-22T11:41:52.349Z,24.34
2022-08-22T11:42:48.120Z,24.22
2022-08-22T11:43:47.167Z,24.08
2022-08-22T11:44:50.852Z,23.94
2022-08-22T11:45:47.078Z,23.82
2022-08-22T11:46:47.050Z,23.75
2022-08-22T11:47:47.039Z,23.98
2022-08-22T11:48:48.542Z,24.12
2022-08-22T11:49:47.023Z,24.27
2022-08-22T11:50:47.029Z,24.44
2022-08-22T11:51:46.998Z,24.59
2022-08-22T11:52:51.664Z,24.71
2022-08-22T11:53:47.978Z,24.83
2022-08-22T11:54:46.967Z,24.94
2022-08-22T11:55:46.949Z,25.02
2022-08-22T11:56:46.949Z,24.83
2022-08-22T11:57:46.920Z,25.00
2022-08-22T11:58:46.920Z,25.09
2022-08-22T11:59:47.758Z,25.15
2022-08-22T12:00:46.897Z,25.24
2022-08-22T12:01:46.933Z,25.27
2022-08-22T12:02:47.369Z,25.27
2022-08-22T12:03:46.857Z,25.32
2022-08-22T12:04:47.849Z,25.35
2022-08-22T12:05:46.839Z,25.38
2022-08-22T12:06:47.560Z,25.42
2022-08-22T12:07:50.627Z,25.43
2022-08-22T12:08:46.820Z,25.42
2022-08-22T12:09:47.668Z,25.43
2022-08-22T12:10:46.779Z,25.47
2022-08-22T12:11:46.769Z,25.46
2022-08-22T12:12:46.749Z,25.50
2022-08-22T12:13:46.738Z,25.50
2022-08-22T12:14:46.749Z,25.53
2022-08-22T12:15:46.719Z,25.47
2022-08-22T12:16:47.408Z,25.46
2022-08-22T12:17:55.847Z,25.50
2022-08-22T12:18:47.679Z,25.49
2022-08-22T12:20:12.845Z,25.52
2022-08-22T12:20:47.681Z,25.50
2022-08-22T12:21:46.648Z,25.49
2022-08-22T12:22:50.092Z,25.47
2022-08-22T12:23:49.648Z,25.44
2022-08-22T12:24:46.631Z,25.44
2022-08-22T12:25:46.611Z,25.43
2022-08-22T12:26:46.623Z,25.42
2022-08-22T12:27:48.288Z,25.39
2022-08-22T12:28:47.579Z,25.32
2022-08-22T12:29:46.549Z,25.12
2022-08-22T12:30:46.559Z,25.00
2022-08-22T12:31:46.542Z,24.87
2022-08-22T12:32:46.531Z,24.71
2022-08-22T12:33:46.507Z,24.56
2022-08-22T12:34:46.499Z,24.44
2022-08-22T12:35:46.486Z,24.34
2022-08-22T12:36:46.508Z,24.32
2022-08-22T12:37:52.397Z,24.37
2022-08-22T12:38:47.458Z,24.37
2022-08-22T12:39:46.486Z,24.37
2022-08-22T12:40:46.428Z,24.38
2022-08-22T12:41:46.461Z,24.39
2022-08-22T12:42:46.453Z,24.41
2022-08-22T12:43:46.427Z,24.42
2022-08-22T12:44:46.390Z,24.41
2022-08-22T12:45:46.368Z,24.44
2022-08-22T12:46:47.298Z,24.42
2022-08-22T12:47:46.348Z,24.47
2022-08-22T12:48:46.372Z,24.50
2022-08-22T12:49:50.003Z,24.52
2022-08-22T12:50:47.308Z,24.54